Monday, January 21, 2019, 5:07 PM EST
Back to Local

KMLT, Millinocket Municipal Airport

Location: Millinocket, ME, United States Lat: 45.65
Local Time: 5:07 PM EST (22:07 GMT) Lon: -68.7
Time Zone: US/Eastern Elev: 406 ft

Show me the last for .
Show Coded

Time T Td Feel RH Dir Speed Gust Alt SLP Vis Weather Sky Remarks
2019-01-21 16:53 3 -6 -18 65 300° 13 21 29.69 29.73 7 OVC060 None
2019-01-21 16:28 3 -6 -20 65 300° 14 24 29.68 - 3 HZ OVC050 None
2019-01-21 16:14 3 -6 -19 65 300° 15 23 29.68 - 2 HZ OVC050 None
2019-01-21 15:53 3 -5 -18 68 300° 13 21 29.66 29.71 3 HZ OVC050 1-hr Precip Total: Trace
6-hr Precip Total (4pm): 0.00"
2019-01-21 15:30 4 -5 -16 65 300° 12 18 29.65 - 3 HZ FEW034 OVC050 1-hr Precip Total: Trace
2019-01-21 15:12 4 -4 -17 68 300° 16 21 29.63 - 1 HZ BKN037 OVC050 1-hr Precip Total: Trace
2019-01-21 14:53 5 -3 -17 68 290° 12 24 29.62 29.65 1 HZ BKN030 OVC038 1-hr Precip Total: Trace
2019-01-21 14:44 5 -3 -16 68 290° 10 22 29.61 - 1 HZ OVC033 1-hr Precip Total: Trace
2019-01-21 14:29 5 -3 -12 68 290° 14 - 29.60 - 1 HZ OVC035 1-hr Precip Total: Trace
2019-01-21 14:15 5 -3 -17 68 300° 15 24 29.60 - 1 -SN OVC034 1-hr Precip Total: Trace
2019-01-21 14:00 6 -2 -16 68 300° 14 24 29.59 - 1 HZ OVC036 None
2019-01-21 13:53 6 -2 -15 68 300° 14 22 29.59 29.63 2 HZ BKN037 OVC045 None
2019-01-21 13:43 6 -2 -15 68 300° 9 23 29.58 - 2 HZ BKN037 OVC044 None
2019-01-21 12:53 8 -3 -8 59 300° 13 - 29.56 29.60 10 FEW036 OVC060 6-hr Precip Total (1pm): 0.00"
6-hr Min Temp (1pm): 6.1°F
6-hr Max Temp (1pm): 8.1°F
2019-01-21 11:53 8 -3 -8 59 290° 13 - 29.56 29.60 10 SCT034 OVC060 None
2019-01-21 10:53 7 -3 -13 62 310° 13 21 29.56 29.60 10 OVC060 None
2019-01-21 09:53 7 -2 -8 65 300° 10 - 29.54 29.58 9 OVC060 1-hr Precip Total: Trace
6-hr Precip Total (10am): 0.00"
2019-01-21 09:10 7 -2 -9 65 300° 13 - 29.52 - 3 -SN SCT043 OVC060 1-hr Precip Total: Trace
2019-01-21 08:53 7 -1 -12 69 310° 8 18 29.52 29.56 2 -SN SCT043 BKN050 OVC060 1-hr Precip Total: Trace
2019-01-21 08:40 6 -1 -13 72 300° 10 17 29.51 - 1 -SN BKN039 OVC060 1-hr Precip Total: Trace
2019-01-21 08:29 6 -1 -8 72 310° 9 - 29.50 - 1 -SN BKN023 BKN035 OVC060 1-hr Precip Total: Trace
2019-01-21 07:53 6 -1 -8 72 310° 9 - 29.48 29.52 0 -SN OVC028 1-hr Precip Total: Trace
2019-01-21 07:50 7 0 -8 71 300° 10 - 29.48 - 1 -SN OVC030 1-hr Precip Total: Trace
2019-01-21 07:37 6 -2 -10 68 300° 13 - 29.47 - 1 -SN OVC040 1-hr Precip Total: Trace
2019-01-21 06:53 6 -2 -9 68 310° 12 - 29.45 29.49 6 HZ OVC043 6-hr Min Temp (7am): 6.1°F
6-hr Max Temp (7am): 12.9°F
2019-01-21 05:53 7 -1 -8 69 300° 10 - 29.42 29.46 10 OVC043 None
2019-01-21 04:53 8 0 -4 68 300° 8 - 29.41 29.45 10 OVC041 None
2019-01-21 03:53 10 2 -8 69 290° 9 18 29.38 29.42 8 OVC040 None
2019-01-21 02:53 13 2 -3 60 340° 15 - 29.36 29.40 10 OVC041 None
2019-01-21 01:53 13 2 -6 60 340° 14 22 29.35 29.39 10 OVC031 None
2019-01-21 01:48 12 1 -7 61 350° 12 22 29.35 - 10 OVC031 None
2019-01-21 01:25 13 3 -7 63 350° 12 25 29.33 - 10 OVC029 None
2019-01-21 00:53 13 3 -6 63 350° 15 23 29.31 29.35 10 OVC031 6-hr Precip Total (1am): 0.00"
6-hr Min Temp (1am): 7.0°F
6-hr Max Temp (1am): 14.0°F
2019-01-20 23:53 14 4 -7 63 340° 17 32 29.30 29.34 9 OVC036 Peak wind: 32 mph (28 kts) from 320° at 51 min
24-hr Min Temp (12am): -4.0°F
24-hr Max Temp (12am): 14.0°F
2019-01-20 22:53 9 3 -3 76 300° 8 - 29.31 29.35 5 HZ OVC044 1-hr Precip Total: Trace
2019-01-20 22:42 8 3 -6 79 300° 10 - 29.31 - 4 HZ SCT035 OVC047 1-hr Precip Total: Trace
2019-01-20 22:26 8 3 -4 79 300° 8 - 29.32 - 2 -SN SCT018 OVC035 1-hr Precip Total: Trace
2019-01-20 22:17 8 3 -4 79 300° 8 - 29.31 - 4 HZ BKN018 OVC035 1-hr Precip Total: Trace
2019-01-20 22:07 8 3 -5 79 310° 9 - 29.30 - 2 HZ OVC018 1-hr Precip Total: Trace
2019-01-20 21:53 7 3 -5 83 290° 7 - 29.29 29.33 1 -SN BR OVC018 1-hr Precip Total: Trace
6-hr Precip Total (10pm): 0.00"
2019-01-20 21:30 8 3 -6 79 310° 10 - 29.29 - 1 -SN VV015 1-hr Precip Total: Trace
2019-01-20 21:18 8 4 -7 82 300° 12 - 29.30 - 0 -SN BR VV014 1-hr Precip Total: Trace
2019-01-20 21:11 9 4 -5 79 300° 10 - 29.30 - 0 -SN VV015 1-hr Precip Total: Trace
2019-01-20 21:03 10 6 -3 83 290° 9 - 29.31 - 1 -SN BR VV018 1-hr Precip Total: Trace
2019-01-20 20:53 10 6 -2 83 300° 8 - 29.30 29.35 1 -SN BR OVC020 1-hr Precip Total: Trace
2019-01-20 20:17 14 8 -4 76 330° 12 21 29.31 - 1 -SN OVC022 1-hr Precip Total: Trace
2019-01-20 20:10 13 8 -5 80 330° 15 21 29.30 - 1 -SN OVC020 1-hr Precip Total: Trace
2019-01-20 20:03 13 8 -5 80 340° 15 21 29.31 - 1 -SN OVC018 1-hr Precip Total: Trace
2019-01-20 19:53 13 8 -2 80 330° 13 - 29.32 29.36 1 BLSN OVC016 None
2019-01-20 19:50 12 9 -4 85 330° 15 - 29.32 - 1 BLSN OVC016 None
2019-01-20 19:14 11 7 -5 83 330° 14 - 29.35 - 1 BLSN BR OVC015 None
2019-01-20 19:04 11 6 -3 80 330° 12 - 29.35 - 1 BLSN VV012 None
2019-01-20 18:53 10 6 -5 83 330° 13 - 29.35 29.39 0 BLSN BR VV010 1-hr Precip Total: Trace
6-hr Precip Total (7pm): 0.00"
6-hr Min Temp (7pm): -0.0°F
6-hr Max Temp (7pm): 10.0°F
2019-01-20 18:51 10 5 -4 78 340° 12 - 29.34 - 0 BLSN VV010 1-hr Precip Total: Trace
2019-01-20 18:33 9 4 -10 79 320° 12 20 29.35 - 0 BLSN VV009 1-hr Precip Total: Trace
2019-01-20 18:02 8 3 -12 79 340° 12 22 29.35 - 0 UP VV013 1-hr Precip Total: Trace
2019-01-20 17:53 7 2 -8 79 330° 12 - 29.36 29.41 1 UP VV014 1-hr Precip Total: Trace
2019-01-20 17:39 7 2 -9 79 330° 13 - 29.36 - 1 UP BKN016 OVC021 1-hr Precip Total: Trace
2019-01-20 17:21 8 3 -12 79 Variable 7 21 29.38 - 1 UP BKN016 OVC021 1-hr Precip Total: Trace

Support USWX by starting your Amazon purchase here.